sensor_id;sensor_type;location;lat;lon;timestamp;temperature;humidity
66119;DHT22;52912;48.564;9.302;2022-12-10T00:01:32;0.54;99.80
66119;DHT22;52912;48.564;9.302;2022-12-10T00:03:59;0.50;99.95
66119;DHT22;52912;48.564;9.302;2022-12-10T00:06:27;0.48;99.99
66119;DHT22;52912;48.564;9.302;2022-12-10T00:08:52;0.48;99.99
66119;DHT22;52912;48.564;9.302;2022-12-10T00:11:19;0.51;99.99
66119;DHT22;52912;48.564;9.302;2022-12-10T00:13:45;0.53;99.99
66119;DHT22;52912;48.564;9.302;2022-12-10T00:16:13;0.57;99.99
66119;DHT22;52912;48.564;9.302;2022-12-10T00:18:39;0.60;99.81
66119;DHT22;52912;48.564;9.302;2022-12-10T00:23:45;0.61;99.49
66119;DHT22;52912;48.564;9.302;2022-12-10T00:26:14;0.55;99.87
66119;DHT22;52912;48.564;9.302;2022-12-10T00:28:40;0.62;99.84
66119;DHT22;52912;48.564;9.302;2022-12-10T00:31:08;0.57;99.46
66119;DHT22;52912;48.564;9.302;2022-12-10T00:33:34;0.51;99.74
66119;DHT22;52912;48.564;9.302;2022-12-10T00:36:04;0.54;99.87
66119;DHT22;52912;48.564;9.302;2022-12-10T00:41:19;0.60;99.61
66119;DHT22;52912;48.564;9.302;2022-12-10T00:43:45;0.55;99.75
66119;DHT22;52912;48.564;9.302;2022-12-10T00:46:11;0.60;99.90
66119;DHT22;52912;48.564;9.302;2022-12-10T00:48:37;0.66;99.66
66119;DHT22;52912;48.564;9.302;2022-12-10T00:51:17;0.64;99.63
66119;DHT22;52912;48.564;9.302;2022-12-10T00:53:44;0.61;99.78
66119;DHT22;52912;48.564;9.302;2022-12-10T00:56:12;0.62;99.67
66119;DHT22;52912;48.564;9.302;2022-12-10T00:58:42;0.68;99.48
66119;DHT22;52912;48.564;9.302;2022-12-10T01:01:10;0.66;99.65
66119;DHT22;52912;48.564;9.302;2022-12-10T01:03:37;0.62;99.63
66119;DHT22;52912;48.564;9.302;2022-12-10T01:06:10;0.64;99.75
66119;DHT22;52912;48.564;9.302;2022-12-10T01:08:36;0.69;99.67
66119;DHT22;52912;48.564;9.302;2022-12-10T01:11:02;0.71;99.48
66119;DHT22;52912;48.564;9.302;2022-12-10T01:13:28;0.69;99.39
66119;DHT22;52912;48.564;9.302;2022-12-10T01:15:55;0.69;99.25
66119;DHT22;52912;48.564;9.302;2022-12-10T01:18:20;0.69;99.15
66119;DHT22;52912;48.564;9.302;2022-12-10T01:20:45;0.66;99.09
66119;DHT22;52912;48.564;9.302;2022-12-10T01:23:11;0.66;99.20
66119;DHT22;52912;48.564;9.302;2022-12-10T01:25:36;0.68;99.23
66119;DHT22;52912;48.564;9.302;2022-12-10T01:28:02;0.69;99.16
66119;DHT22;52912;48.564;9.302;2022-12-10T01:30:27;0.76;99.11
66119;DHT22;52912;48.564;9.302;2022-12-10T01:32:54;0.75;98.91
66119;DHT22;52912;48.564;9.302;2022-12-10T01:35:20;0.78;98.92
66119;DHT22;52912;48.564;9.302;2022-12-10T01:37:45;0.79;98.99
66119;DHT22;52912;48.564;9.302;2022-12-10T01:40:11;0.78;98.96
66119;DHT22;52912;48.564;9.302;2022-12-10T01:42:36;0.75;99.00
66119;DHT22;52912;48.564;9.302;2022-12-10T01:45:09;0.75;99.13
66119;DHT22;52912;48.564;9.302;2022-12-10T01:47:35;0.81;99.02
66119;DHT22;52912;48.564;9.302;2022-12-10T01:50:03;0.78;98.93
66119;DHT22;52912;48.564;9.302;2022-12-10T01:52:29;0.72;99.32
66119;DHT22;52912;48.564;9.302;2022-12-10T01:54:54;0.76;99.27
66119;DHT22;52912;48.564;9.302;2022-12-10T01:57:22;0.73;99.29
66119;DHT22;52912;48.564;9.302;2022-12-10T01:59:50;0.69;99.12
66119;DHT22;52912;48.564;9.302;2022-12-10T02:02:22;0.71;99.08
66119;DHT22;52912;48.564;9.302;2022-12-10T02:04:56;0.73;99.04
66119;DHT22;52912;48.564;9.302;2022-12-10T02:07:28;0.66;99.12
66119;DHT22;52912;48.564;9.302;2022-12-10T02:09:58;0.65;99.32
66119;DHT22;52912;48.564;9.302;2022-12-10T02:12:29;0.69;99.27
66119;DHT22;52912;48.564;9.302;2022-12-10T02:15:02;0.72;98.90
66119;DHT22;52912;48.564;9.302;2022-12-10T02:17:32;0.78;98.73
66119;DHT22;52912;48.564;9.302;2022-12-10T02:20:04;0.78;98.75
66119;DHT22;52912;48.564;9.302;2022-12-10T02:22:35;0.75;98.77
66119;DHT22;52912;48.564;9.302;2022-12-10T02:25:04;0.66;99.03
66119;DHT22;52912;48.564;9.302;2022-12-10T02:27:37;0.65;99.37
66119;DHT22;52912;48.564;9.302;2022-12-10T02:30:08;0.69;99.37
66119;DHT22;52912;48.564;9.302;2022-12-10T02:32:36;0.64;99.26
66119;DHT22;52912;48.564;9.302;2022-12-10T02:35:04;0.65;99.58
66119;DHT22;52912;48.564;9.302;2022-12-10T02:37:33;0.62;99.63
66119;DHT22;52912;48.564;9.302;2022-12-10T02:40:03;0.62;99.48
66119;DHT22;52912;48.564;9.302;2022-12-10T02:42:34;0.60;99.47
66119;DHT22;52912;48.564;9.302;2022-12-10T02:45:01;0.57;99.52
66119;DHT22;52912;48.564;9.302;2022-12-10T02:47:29;0.60;99.47
66119;DHT22;52912;48.564;9.302;2022-12-10T02:49:56;0.58;99.46
66119;DHT22;52912;48.564;9.302;2022-12-10T02:52:24;0.58;99.58
66119;DHT22;52912;48.564;9.302;2022-12-10T02:54:50;0.71;99.27
66119;DHT22;52912;48.564;9.302;2022-12-10T02:57:24;0.62;99.22
66119;DHT22;52912;48.564;9.302;2022-12-10T03:00:09;0.60;99.30
66119;DHT22;52912;48.564;9.302;2022-12-10T03:02:45;0.61;99.46
66119;DHT22;52912;48.564;9.302;2022-12-10T03:05:16;0.61;99.47
66119;DHT22;52912;48.564;9.302;2022-12-10T03:07:47;0.60;99.23
66119;DHT22;52912;48.564;9.302;2022-12-10T03:10:24;0.57;99.41
66119;DHT22;52912;48.564;9.302;2022-12-10T03:12:55;0.55;99.41
66119;DHT22;52912;48.564;9.302;2022-12-10T03:15:24;0.58;99.15
66119;DHT22;52912;48.564;9.302;2022-12-10T03:17:52;0.60;99.43
66119;DHT22;52912;48.564;9.302;2022-12-10T03:20:19;0.55;99.30
66119;DHT22;52912;48.564;9.302;2022-12-10T03:22:46;0.54;99.39
66119;DHT22;52912;48.564;9.302;2022-12-10T03:25:15;0.53;99.40
66119;DHT22;52912;48.564;9.302;2022-12-10T03:27:43;0.54;99.40
66119;DHT22;52912;48.564;9.302;2022-12-10T03:30:11;0.55;99.49
66119;DHT22;52912;48.564;9.302;2022-12-10T03:32:37;0.50;99.48
66119;DHT22;52912;48.564;9.302;2022-12-10T03:35:05;0.47;99.48
66119;DHT22;52912;48.564;9.302;2022-12-10T03:37:31;0.53;99.60
66119;DHT22;52912;48.564;9.302;2022-12-10T03:39:57;0.54;99.38
66119;DHT22;52912;48.564;9.302;2022-12-10T03:42:23;0.60;99.05
66119;DHT22;52912;48.564;9.302;2022-12-10T03:44:50;0.57;99.30
66119;DHT22;52912;48.564;9.302;2022-12-10T03:47:16;0.58;99.33
66119;DHT22;52912;48.564;9.302;2022-12-10T03:49:41;0.55;99.25
66119;DHT22;52912;48.564;9.302;2022-12-10T03:52:09;0.55;99.14
66119;DHT22;52912;48.564;9.302;2022-12-10T03:54:35;0.48;99.34
66119;DHT22;52912;48.564;9.302;2022-12-10T03:57:00;0.58;99.50
66119;DHT22;52912;48.564;9.302;2022-12-10T03:59:26;0.60;99.38
66119;DHT22;52912;48.564;9.302;2022-12-10T04:01:51;0.60;99.17
66119;DHT22;52912;48.564;9.302;2022-12-10T04:04:17;0.61;99.34
66119;DHT22;52912;48.564;9.302;2022-12-10T04:06:43;0.61;99.16
66119;DHT22;52912;48.564;9.302;2022-12-10T04:09:11;0.62;98.97
66119;DHT22;52912;48.564;9.302;2022-12-10T04:11:37;0.66;98.86
66119;DHT22;52912;48.564;9.302;2022-12-10T04:14:02;0.72;98.64
66119;DHT22;52912;48.564;9.302;2022-12-10T04:16:29;0.76;98.51
66119;DHT22;52912;48.564;9.302;2022-12-10T04:18:57;0.72;98.31
66119;DHT22;52912;48.564;9.302;2022-12-10T04:21:23;0.72;98.24
66119;DHT22;52912;48.564;9.302;2022-12-10T04:23:48;0.64;98.50
66119;DHT22;52912;48.564;9.302;2022-12-10T04:26:15;0.65;98.53
66119;DHT22;52912;48.564;9.302;2022-12-10T04:28:40;0.68;98.50
66119;DHT22;52912;48.564;9.302;2022-12-10T04:31:06;0.71;98.34
66119;DHT22;52912;48.564;9.302;2022-12-10T04:33:31;0.73;98.36
66119;DHT22;52912;48.564;9.302;2022-12-10T04:35:57;0.72;98.22
66119;DHT22;52912;48.564;9.302;2022-12-10T04:38:22;0.73;98.27
66119;DHT22;52912;48.564;9.302;2022-12-10T04:40:47;0.72;98.44
66119;DHT22;52912;48.564;9.302;2022-12-10T04:43:14;0.68;98.78
66119;DHT22;52912;48.564;9.302;2022-12-10T04:45:40;0.71;98.69
66119;DHT22;52912;48.564;9.302;2022-12-10T04:48:06;0.73;98.58
66119;DHT22;52912;48.564;9.302;2022-12-10T04:50:31;0.79;98.58
66119;DHT22;52912;48.564;9.302;2022-12-10T04:52:57;0.75;98.53
66119;DHT22;52912;48.564;9.302;2022-12-10T04:55:22;0.76;98.58
66119;DHT22;52912;48.564;9.302;2022-12-10T04:57:48;0.79;98.47
66119;DHT22;52912;48.564;9.302;2022-12-10T05:00:15;0.79;98.63
66119;DHT22;52912;48.564;9.302;2022-12-10T05:02:40;0.73;98.72
66119;DHT22;52912;48.564;9.302;2022-12-10T05:05:06;0.72;98.47
66119;DHT22;52912;48.564;9.302;2022-12-10T05:07:32;0.78;98.49
66119;DHT22;52912;48.564;9.302;2022-12-10T05:09:58;0.86;98.18
66119;DHT22;52912;48.564;9.302;2022-12-10T05:12:23;0.89;97.77
66119;DHT22;52912;48.564;9.302;2022-12-10T05:14:49;0.82;98.11
66119;DHT22;52912;48.564;9.302;2022-12-10T05:17:15;0.68;98.55
66119;DHT22;52912;48.564;9.302;2022-12-10T05:19:41;0.76;98.37
66119;DHT22;52912;48.564;9.302;2022-12-10T05:22:07;0.82;98.33
66119;DHT22;52912;48.564;9.302;2022-12-10T05:24:33;0.81;98.11
66119;DHT22;52912;48.564;9.302;2022-12-10T05:26:59;0.86;98.08
66119;DHT22;52912;48.564;9.302;2022-12-10T05:29:24;0.71;98.13
66119;DHT22;52912;48.564;9.302;2022-12-10T05:31:50;0.64;98.47
66119;DHT22;52912;48.564;9.302;2022-12-10T05:34:17;0.58;98.74
66119;DHT22;52912;48.564;9.302;2022-12-10T05:36:42;0.58;98.97
66119;DHT22;52912;48.564;9.302;2022-12-10T05:39:08;0.65;98.79
66119;DHT22;52912;48.564;9.302;2022-12-10T05:41:36;0.71;98.69
66119;DHT22;52912;48.564;9.302;2022-12-10T05:44:02;0.57;98.62
66119;DHT22;52912;48.564;9.302;2022-12-10T05:46:30;0.57;98.79
66119;DHT22;52912;48.564;9.302;2022-12-10T05:48:56;0.65;98.70
66119;DHT22;52912;48.564;9.302;2022-12-10T05:51:25;0.61;98.77
66119;DHT22;52912;48.564;9.302;2022-12-10T05:53:51;0.55;98.82
66119;DHT22;52912;48.564;9.302;2022-12-10T05:56:18;0.53;99.12
66119;DHT22;52912;48.564;9.302;2022-12-10T05:58:46;0.53;99.29
66119;DHT22;52912;48.564;9.302;2022-12-10T06:01:14;0.53;99.28
66119;DHT22;52912;48.564;9.302;2022-12-10T06:03:40;0.53;99.33
66119;DHT22;52912;48.564;9.302;2022-12-10T06:06:06;0.50;99.36
66119;DHT22;52912;48.564;9.302;2022-12-10T06:08:33;0.54;99.41
66119;DHT22;52912;48.564;9.302;2022-12-10T06:11:00;0.50;99.59
66119;DHT22;52912;48.564;9.302;2022-12-10T06:13:26;0.47;99.50
66119;DHT22;52912;48.564;9.302;2022-12-10T06:15:51;0.48;99.56
66119;DHT22;52912;48.564;9.302;2022-12-10T06:18:16;0.55;99.50
66119;DHT22;52912;48.564;9.302;2022-12-10T06:20:42;0.55;99.41
66119;DHT22;52912;48.564;9.302;2022-12-10T06:23:07;0.53;99.31
66119;DHT22;52912;48.564;9.302;2022-12-10T06:25:37;0.50;99.43
66119;DHT22;52912;48.564;9.302;2022-12-10T06:28:03;0.48;99.42
66119;DHT22;52912;48.564;9.302;2022-12-10T06:30:28;0.45;99.32
66119;DHT22;52912;48.564;9.302;2022-12-10T06:32:54;0.45;99.29
66119;DHT22;52912;48.564;9.302;2022-12-10T06:35:20;0.45;99.24
66119;DHT22;52912;48.564;9.302;2022-12-10T06:37:45;0.45;99.04
66119;DHT22;52912;48.564;9.302;2022-12-10T06:40:11;0.47;98.80
66119;DHT22;52912;48.564;9.302;2022-12-10T06:42:38;0.41;98.77
66119;DHT22;52912;48.564;9.302;2022-12-10T06:45:04;0.41;98.65
66119;DHT22;52912;48.564;9.302;2022-12-10T06:47:30;0.43;98.43
66119;DHT22;52912;48.564;9.302;2022-12-10T06:49:55;0.37;98.67
66119;DHT22;52912;48.564;9.302;2022-12-10T06:52:21;0.44;98.48
66119;DHT22;52912;48.564;9.302;2022-12-10T06:54:46;0.41;98.53
66119;DHT22;52912;48.564;9.302;2022-12-10T06:57:11;0.44;98.64
66119;DHT22;52912;48.564;9.302;2022-12-10T06:59:39;0.50;98.54
66119;DHT22;52912;48.564;9.302;2022-12-10T07:02:04;0.50;98.32
66119;DHT22;52912;48.564;9.302;2022-12-10T07:04:30;0.53;98.34
66119;DHT22;52912;48.564;9.302;2022-12-10T07:06:55;0.58;98.20
66119;DHT22;52912;48.564;9.302;2022-12-10T07:09:21;0.51;98.22
66119;DHT22;52912;48.564;9.302;2022-12-10T07:11:46;0.58;98.22
66119;DHT22;52912;48.564;9.302;2022-12-10T07:14:13;0.68;98.04
66119;DHT22;52912;48.564;9.302;2022-12-10T07:16:41;0.64;97.93
66119;DHT22;52912;48.564;9.302;2022-12-10T07:19:09;0.72;97.60
66119;DHT22;52912;48.564;9.302;2022-12-10T07:21:36;0.61;97.84
66119;DHT22;52912;48.564;9.302;2022-12-10T07:24:04;0.66;97.87
66119;DHT22;52912;48.564;9.302;2022-12-10T07:26:32;0.64;98.06
66119;DHT22;52912;48.564;9.302;2022-12-10T07:28:59;0.62;98.22
66119;DHT22;52912;48.564;9.302;2022-12-10T07:31:25;0.61;98.39
66119;DHT22;52912;48.564;9.302;2022-12-10T07:33:53;0.57;98.17
66119;DHT22;52912;48.564;9.302;2022-12-10T07:36:20;0.68;97.93
66119;DHT22;52912;48.564;9.302;2022-12-10T07:38:45;0.64;97.89
66119;DHT22;52912;48.564;9.302;2022-12-10T07:41:12;0.60;98.03
66119;DHT22;52912;48.564;9.302;2022-12-10T07:43:40;0.64;97.87
66119;DHT22;52912;48.564;9.302;2022-12-10T07:46:07;0.64;97.95
66119;DHT22;52912;48.564;9.302;2022-12-10T07:48:34;0.57;97.16
66119;DHT22;52912;48.564;9.302;2022-12-10T07:51:01;0.61;97.64
66119;DHT22;52912;48.564;9.302;2022-12-10T07:53:26;0.64;97.64
66119;DHT22;52912;48.564;9.302;2022-12-10T07:55:52;0.62;97.33
66119;DHT22;52912;48.564;9.302;2022-12-10T07:58:17;0.61;97.31
66119;DHT22;52912;48.564;9.302;2022-12-10T08:00:43;0.62;97.31
66119;DHT22;52912;48.564;9.302;2022-12-10T08:03:08;0.58;97.42
66119;DHT22;52912;48.564;9.302;2022-12-10T08:05:34;0.53;97.37
66119;DHT22;52912;48.564;9.302;2022-12-10T08:08:00;0.55;97.39
66119;DHT22;52912;48.564;9.302;2022-12-10T08:10:26;0.55;97.42
66119;DHT22;52912;48.564;9.302;2022-12-10T08:12:51;0.62;97.23
66119;DHT22;52912;48.564;9.302;2022-12-10T08:15:17;0.57;97.11
66119;DHT22;52912;48.564;9.302;2022-12-10T08:17:42;0.58;97.35
66119;DHT22;52912;48.564;9.302;2022-12-10T08:20:08;0.54;97.26
66119;DHT22;52912;48.564;9.302;2022-12-10T08:22:34;0.58;97.49
66119;DHT22;52912;48.564;9.302;2022-12-10T08:25:01;0.61;97.46
66119;DHT22;52912;48.564;9.302;2022-12-10T08:27:26;0.72;96.88
66119;DHT22;52912;48.564;9.302;2022-12-10T08:29:52;0.71;96.69
66119;DHT22;52912;48.564;9.302;2022-12-10T08:32:17;0.79;95.82
66119;DHT22;52912;48.564;9.302;2022-12-10T08:34:43;0.73;96.35
66119;DHT22;52912;48.564;9.302;2022-12-10T08:37:08;0.65;96.13
66119;DHT22;52912;48.564;9.302;2022-12-10T08:39:33;0.71;96.61
66119;DHT22;52912;48.564;9.302;2022-12-10T08:42:03;0.79;96.47
66119;DHT22;52912;48.564;9.302;2022-12-10T08:44:29;0.83;96.45
66119;DHT22;52912;48.564;9.302;2022-12-10T08:46:54;0.82;96.22
66119;DHT22;52912;48.564;9.302;2022-12-10T08:49:20;0.76;95.74
66119;DHT22;52912;48.564;9.302;2022-12-10T08:51:46;0.75;95.81
66119;DHT22;52912;48.564;9.302;2022-12-10T08:54:11;0.76;96.14
66119;DHT22;52912;48.564;9.302;2022-12-10T08:56:36;0.71;96.21
66119;DHT22;52912;48.564;9.302;2022-12-10T08:59:03;0.82;96.17
66119;DHT22;52912;48.564;9.302;2022-12-10T09:01:29;0.81;95.99
66119;DHT22;52912;48.564;9.302;2022-12-10T09:03:54;1.00;95.66
66119;DHT22;52912;48.564;9.302;2022-12-10T09:06:22;1.00;95.71
66119;DHT22;52912;48.564;9.302;2022-12-10T09:08:47;1.12;95.71
66119;DHT22;52912;48.564;9.302;2022-12-10T09:11:14;1.13;95.22
66119;DHT22;52912;48.564;9.302;2022-12-10T09:13:40;1.19;94.68
66119;DHT22;52912;48.564;9.302;2022-12-10T09:16:07;1.04;95.20
66119;DHT22;52912;48.564;9.302;2022-12-10T09:18:33;0.93;95.60
66119;DHT22;52912;48.564;9.302;2022-12-10T09:20:58;0.93;95.65
66119;DHT22;52912;48.564;9.302;2022-12-10T09:23:24;0.89;95.64
66119;DHT22;52912;48.564;9.302;2022-12-10T09:25:50;1.04;95.53
66119;DHT22;52912;48.564;9.302;2022-12-10T09:28:15;1.06;95.67
66119;DHT22;52912;48.564;9.302;2022-12-10T09:30:41;1.13;95.41
66119;DHT22;52912;48.564;9.302;2022-12-10T09:33:08;1.16;94.83
66119;DHT22;52912;48.564;9.302;2022-12-10T09:35:33;1.16;94.69
66119;DHT22;52912;48.564;9.302;2022-12-10T09:37:59;1.22;94.64
66119;DHT22;52912;48.564;9.302;2022-12-10T09:40:31;1.23;95.32
66119;DHT22;52912;48.564;9.302;2022-12-10T09:43:00;1.22;94.37
66119;DHT22;52912;48.564;9.302;2022-12-10T09:45:34;1.15;94.77
66119;DHT22;52912;48.564;9.302;2022-12-10T09:48:10;1.27;94.86
66119;DHT22;52912;48.564;9.302;2022-12-10T09:50:48;1.34;94.38
66119;DHT22;52912;48.564;9.302;2022-12-10T09:53:15;1.30;94.14
66119;DHT22;52912;48.564;9.302;2022-12-10T09:55:45;1.30;93.90
66119;DHT22;52912;48.564;9.302;2022-12-10T09:58:15;1.22;93.81
66119;DHT22;52912;48.564;9.302;2022-12-10T10:00:44;1.20;94.25
66119;DHT22;52912;48.564;9.302;2022-12-10T10:03:13;1.17;94.11
66119;DHT22;52912;48.564;9.302;2022-12-10T10:05:46;1.20;93.58
66119;DHT22;52912;48.564;9.302;2022-12-10T10:08:14;1.28;93.39
66119;DHT22;52912;48.564;9.302;2022-12-10T10:10:40;1.22;93.74
66119;DHT22;52912;48.564;9.302;2022-12-10T10:13:14;1.26;93.95
66119;DHT22;52912;48.564;9.302;2022-12-10T10:15:43;1.40;93.53
66119;DHT22;52912;48.564;9.302;2022-12-10T10:18:14;1.23;93.60
66119;DHT22;52912;48.564;9.302;2022-12-10T10:20:42;1.34;93.39
66119;DHT22;52912;48.564;9.302;2022-12-10T10:23:08;1.34;93.60
66119;DHT22;52912;48.564;9.302;2022-12-10T10:25:38;1.59;93.43
66119;DHT22;52912;48.564;9.302;2022-12-10T10:28:03;1.44;93.25
66119;DHT22;52912;48.564;9.302;2022-12-10T10:30:29;1.62;92.81
66119;DHT22;52912;48.564;9.302;2022-12-10T10:32:57;1.50;92.63
66119;DHT22;52912;48.564;9.302;2022-12-10T10:35:25;1.52;93.22
66119;DHT22;52912;48.564;9.302;2022-12-10T10:37:57;1.71;92.70
66119;DHT22;52912;48.564;9.302;2022-12-10T10:40:26;1.75;91.90
66119;DHT22;52912;48.564;9.302;2022-12-10T10:42:54;1.75;92.50
66119;DHT22;52912;48.564;9.302;2022-12-10T10:45:39;1.72;92.17
66119;DHT22;52912;48.564;9.302;2022-12-10T10:48:09;1.75;92.56
66119;DHT22;52912;48.564;9.302;2022-12-10T10:50:40;1.65;91.31
66119;DHT22;52912;48.564;9.302;2022-12-10T10:53:27;1.63;91.75
66119;DHT22;52912;48.564;9.302;2022-12-10T10:55:54;1.65;91.57
66119;DHT22;52912;48.564;9.302;2022-12-10T10:58:21;1.66;91.86
66119;DHT22;52912;48.564;9.302;2022-12-10T11:00:59;1.66;91.09
66119;DHT22;52912;48.564;9.302;2022-12-10T11:03:26;1.68;91.69
66119;DHT22;52912;48.564;9.302;2022-12-10T11:05:53;1.58;91.56
66119;DHT22;52912;48.564;9.302;2022-12-10T11:08:19;1.59;90.79
66119;DHT22;52912;48.564;9.302;2022-12-10T11:10:50;1.76;90.80
66119;DHT22;52912;48.564;9.302;2022-12-10T11:13:23;1.52;90.51
66119;DHT22;52912;48.564;9.302;2022-12-10T11:15:55;1.59;90.59
66119;DHT22;52912;48.564;9.302;2022-12-10T11:18:25;1.79;90.95
66119;DHT22;52912;48.564;9.302;2022-12-10T11:21:00;1.79;90.31
66119;DHT22;52912;48.564;9.302;2022-12-10T11:23:28;1.69;90.44
66119;DHT22;52912;48.564;9.302;2022-12-10T11:26:02;1.79;90.13
66119;DHT22;52912;48.564;9.302;2022-12-10T11:28:41;1.80;89.97
66119;DHT22;52912;48.564;9.302;2022-12-10T11:31:17;1.85;90.93
66119;DHT22;52912;48.564;9.302;2022-12-10T11:33:52;1.90;91.25
66119;DHT22;52912;48.564;9.302;2022-12-10T11:36:27;1.73;91.02
66119;DHT22;52912;48.564;9.302;2022-12-10T11:39:02;1.69;91.84
66119;DHT22;52912;48.564;9.302;2022-12-10T11:41:34;1.73;91.26
66119;DHT22;52912;48.564;9.302;2022-12-10T11:44:16;1.65;90.84
66119;DHT22;52912;48.564;9.302;2022-12-10T11:47:29;1.85;90.91
66119;DHT22;52912;48.564;9.302;2022-12-10T11:50:10;1.97;91.19
66119;DHT22;52912;48.564;9.302;2022-12-10T11:52:48;1.85;91.61
66119;DHT22;52912;48.564;9.302;2022-12-10T11:55:24;1.93;90.64
66119;DHT22;52912;48.564;9.302;2022-12-10T11:58:03;1.99;90.34
66119;DHT22;52912;48.564;9.302;2022-12-10T12:00:39;2.02;89.80
66119;DHT22;52912;48.564;9.302;2022-12-10T12:03:21;2.00;89.57
66119;DHT22;52912;48.564;9.302;2022-12-10T12:06:01;1.92;89.29
66119;DHT22;52912;48.564;9.302;2022-12-10T12:08:37;1.97;89.21
66119;DHT22;52912;48.564;9.302;2022-12-10T12:11:17;1.89;89.83
66119;DHT22;52912;48.564;9.302;2022-12-10T12:13:51;1.95;89.20
66119;DHT22;52912;48.564;9.302;2022-12-10T12:16:23;1.93;88.83
66119;DHT22;52912;48.564;9.302;2022-12-10T12:18:55;1.83;89.45
66119;DHT22;52912;48.564;9.302;2022-12-10T12:21:24;1.92;89.42
66119;DHT22;52912;48.564;9.302;2022-12-10T12:36:46;1.85;87.70
66119;DHT22;52912;48.564;9.302;2022-12-10T12:39:20;1.76;88.09
66119;DHT22;52912;48.564;9.302;2022-12-10T12:41:53;1.96;88.53
66119;DHT22;52912;48.564;9.302;2022-12-10T12:44:25;1.87;88.47
66119;DHT22;52912;48.564;9.302;2022-12-10T12:46:52;1.85;88.88
66119;DHT22;52912;48.564;9.302;2022-12-10T12:49:21;1.72;88.72
66119;DHT22;52912;48.564;9.302;2022-12-10T12:51:53;1.80;88.42
66119;DHT22;52912;48.564;9.302;2022-12-10T12:54:20;1.86;88.45
66119;DHT22;52912;48.564;9.302;2022-12-10T12:57:03;1.80;87.84
66119;DHT22;52912;48.564;9.302;2022-12-10T12:59:38;1.80;87.86
66119;DHT22;52912;48.564;9.302;2022-12-10T13:02:17;1.72;88.65
66119;DHT22;52912;48.564;9.302;2022-12-10T13:04:44;1.66;88.96
66119;DHT22;52912;48.564;9.302;2022-12-10T13:10:24;1.63;87.54
66119;DHT22;52912;48.564;9.302;2022-12-10T13:12:51;1.56;87.83
66119;DHT22;52912;48.564;9.302;2022-12-10T13:15:33;1.71;88.12
66119;DHT22;52912;48.564;9.302;2022-12-10T13:18:17;1.76;88.43
66119;DHT22;52912;48.564;9.302;2022-12-10T13:20:46;1.89;88.48
66119;DHT22;52912;48.564;9.302;2022-12-10T13:23:29;1.99;87.72
66119;DHT22;52912;48.564;9.302;2022-12-10T13:25:58;1.99;87.98
66119;DHT22;52912;48.564;9.302;2022-12-10T13:28:30;1.97;88.36
66119;DHT22;52912;48.564;9.302;2022-12-10T13:31:17;1.75;87.25
66119;DHT22;52912;48.564;9.302;2022-12-10T13:33:49;1.68;88.18
66119;DHT22;52912;48.564;9.302;2022-12-10T13:36:21;1.71;87.99
66119;DHT22;52912;48.564;9.302;2022-12-10T13:38:56;1.66;88.16
66119;DHT22;52912;48.564;9.302;2022-12-10T13:41:23;1.65;88.13
66119;DHT22;52912;48.564;9.302;2022-12-10T13:43:54;1.68;86.79
66119;DHT22;52912;48.564;9.302;2022-12-10T13:46:24;1.66;87.00
66119;DHT22;52912;48.564;9.302;2022-12-10T13:48:50;1.61;87.03
66119;DHT22;52912;48.564;9.302;2022-12-10T13:51:35;1.62;86.73
66119;DHT22;52912;48.564;9.302;2022-12-10T13:54:37;1.54;87.27
66119;DHT22;52912;48.564;9.302;2022-12-10T13:57:16;1.54;87.50
66119;DHT22;52912;48.564;9.302;2022-12-10T13:59:49;1.63;87.83
66119;DHT22;52912;48.564;9.302;2022-12-10T14:02:38;1.59;87.41
66119;DHT22;52912;48.564;9.302;2022-12-10T14:05:27;1.61;87.78
66119;DHT22;52912;48.564;9.302;2022-12-10T14:08:00;1.71;86.80
66119;DHT22;52912;48.564;9.302;2022-12-10T14:10:30;1.69;86.74
66119;DHT22;52912;48.564;9.302;2022-12-10T14:12:59;1.71;86.39
66119;DHT22;52912;48.564;9.302;2022-12-10T14:15:26;1.75;86.96
66119;DHT22;52912;48.564;9.302;2022-12-10T14:17:57;1.68;87.18
66119;DHT22;52912;48.564;9.302;2022-12-10T14:20:25;1.72;87.16
66119;DHT22;52912;48.564;9.302;2022-12-10T14:22:52;1.80;87.62
66119;DHT22;52912;48.564;9.302;2022-12-10T14:25:20;1.63;87.62
66119;DHT22;52912;48.564;9.302;2022-12-10T14:27:49;1.58;88.72
66119;DHT22;52912;48.564;9.302;2022-12-10T14:30:18;1.55;88.22
66119;DHT22;52912;48.564;9.302;2022-12-10T14:32:45;1.73;87.87
66119;DHT22;52912;48.564;9.302;2022-12-10T14:35:13;1.68;87.02
66119;DHT22;52912;48.564;9.302;2022-12-10T14:37:41;1.62;87.98
66119;DHT22;52912;48.564;9.302;2022-12-10T14:40:09;1.47;88.03
66119;DHT22;52912;48.564;9.302;2022-12-10T14:42:42;1.63;87.74
66119;DHT22;52912;48.564;9.302;2022-12-10T14:45:12;1.45;88.13
66119;DHT22;52912;48.564;9.302;2022-12-10T14:47:40;1.35;87.97
66119;DHT22;52912;48.564;9.302;2022-12-10T14:50:10;1.30;88.60
66119;DHT22;52912;48.564;9.302;2022-12-10T14:52:40;1.23;89.12
66119;DHT22;52912;48.564;9.302;2022-12-10T14:55:11;1.15;89.12
66119;DHT22;52912;48.564;9.302;2022-12-10T14:57:40;1.09;90.23
66119;DHT22;52912;48.564;9.302;2022-12-10T15:00:12;1.16;90.02
66119;DHT22;52912;48.564;9.302;2022-12-10T15:02:41;1.33;90.06
66119;DHT22;52912;48.564;9.302;2022-12-10T15:05:10;1.28;90.53
66119;DHT22;52912;48.564;9.302;2022-12-10T15:07:37;1.04;91.13
66119;DHT22;52912;48.564;9.302;2022-12-10T15:10:05;1.10;91.56
66119;DHT22;52912;48.564;9.302;2022-12-10T15:12:36;1.13;91.50
66119;DHT22;52912;48.564;9.302;2022-12-10T15:15:09;1.00;92.03
66119;DHT22;52912;48.564;9.302;2022-12-10T15:17:38;0.93;92.58
66119;DHT22;52912;48.564;9.302;2022-12-10T15:20:18;0.83;93.10
66119;DHT22;52912;48.564;9.302;2022-12-10T15:22:44;0.89;92.73
66119;DHT22;52912;48.564;9.302;2022-12-10T15:25:19;0.86;93.37
66119;DHT22;52912;48.564;9.302;2022-12-10T15:27:52;0.88;93.25
66119;DHT22;52912;48.564;9.302;2022-12-10T15:30:23;0.81;93.52
66119;DHT22;52912;48.564;9.302;2022-12-10T15:32:49;0.92;93.49
66119;DHT22;52912;48.564;9.302;2022-12-10T15:35:16;0.93;93.30
66119;DHT22;52912;48.564;9.302;2022-12-10T15:37:41;0.95;93.60
66119;DHT22;52912;48.564;9.302;2022-12-10T15:40:22;0.86;93.34
66119;DHT22;52912;48.564;9.302;2022-12-10T15:42:48;1.00;92.68
66119;DHT22;52912;48.564;9.302;2022-12-10T15:45:21;0.82;93.25
66119;DHT22;52912;48.564;9.302;2022-12-10T15:47:47;0.69;93.99
66119;DHT22;52912;48.564;9.302;2022-12-10T15:50:13;0.65;93.82
66119;DHT22;52912;48.564;9.302;2022-12-10T15:52:41;0.53;94.06
66119;DHT22;52912;48.564;9.302;2022-12-10T15:55:08;0.64;94.21
66119;DHT22;52912;48.564;9.302;2022-12-10T15:57:36;0.82;95.95
66119;DHT22;52912;48.564;9.302;2022-12-10T16:00:05;0.89;94.18
66119;DHT22;52912;48.564;9.302;2022-12-10T16:02:36;0.99;94.75
66119;DHT22;52912;48.564;9.302;2022-12-10T16:05:24;1.09;94.69
66119;DHT22;52912;48.564;9.302;2022-12-10T16:07:52;1.16;94.79
66119;DHT22;52912;48.564;9.302;2022-12-10T16:10:19;1.27;93.78
66119;DHT22;52912;48.564;9.302;2022-12-10T16:12:46;1.17;93.18
66119;DHT22;52912;48.564;9.302;2022-12-10T16:15:17;1.19;92.87
66119;DHT22;52912;48.564;9.302;2022-12-10T16:17:44;1.04;92.53